Nuevo Hermanos Rabal — EA4622 — position and weather

sailwx.info

Track history (hours):
 
Tides and Currents Weather Stations Pressure Air Temp Water Temp Dewpoint Dewpoint Depression Visibility Wind Speed Wind Dir Waves Ship Positions

Nuevo Hermanos Rabal

Last reported at 2018-Jun-18 21:00 UTC. Time now 2018-Jun-18 21:13 UTC.
Position N 37°37' W 000°42'.

Length 22 m; draft 3 m.

Type: Fishing. MMSI: 224215230.

Date/timePositionNaut miles runAvg speedWind from/ knotsBaromVisibWave heightAir tempDewpointWater temp
2018-Jun-18 21:00N 37°37' W 000°42'510.1
2018-Jun-18 20:30N 37°41' W 000°40'510.5
2018-Jun-18 20:00N 37°47' W 000°40'510.4
2018-Jun-18 19:30N 37°52' W 000°40'510.4
2018-Jun-18 19:00N 37°57' W 000°41'1 2.8
2018-Jun-18 18:30N 37°58' W 000°41'0 0.0
2018-Jun-18 18:00N 37°58' W 000°41'0 0.0
2018-Jun-18 17:30N 37°58' W 000°41'0 0.0
2018-Jun-18 17:00N 37°58' W 000°41'0 0.0
2018-Jun-18 16:30N 37°58' W 000°41'0 0.0
2018-Jun-18 16:00N 37°58' W 000°41'0 0.0
2018-Jun-18 15:30N 37°58' W 000°41'0 0.0
2018-Jun-18 15:00N 37°58' W 000°41'0 0.0
2018-Jun-18 14:30N 37°58' W 000°41'0 0.0
2018-Jun-18 14:00N 37°58' W 000°41'0 0.0
2018-Jun-18 13:30N 37°58' W 000°41'0 0.0
2018-Jun-18 13:00N 37°58' W 000°41'0 0.0
2018-Jun-18 12:30N 37°58' W 000°41'0 0.0
2018-Jun-18 12:00N 37°58' W 000°41'0 0.0
2018-Jun-18 11:30N 37°58' W 000°41'0 0.0
2018-Jun-18 11:00N 37°58' W 000°41'0 0.0
2018-Jun-18 10:30N 37°58' W 000°41'0 0.0
2018-Jun-18 10:00N 37°58' W 000°41'0 0.0
2018-Jun-18 09:30N 37°58' W 000°41'0 0.0
2018-Jun-18 09:00N 37°58' W 000°41'0 0.0
2018-Jun-18 08:30N 37°58' W 000°41'0 0.0
2018-Jun-18 08:00N 37°58' W 000°41'0 0.0
2018-Jun-18 07:30N 37°58' W 000°41'0 0.0
2018-Jun-18 07:00N 37°58' W 000°41'0 0.0
2018-Jun-18 06:30N 37°58' W 000°41'0 0.2
2018-Jun-18 06:00N 37°58' W 000°41'0 0.0
2018-Jun-18 05:30N 37°58' W 000°41'0 0.1
2018-Jun-18 05:00N 37°58' W 000°41'1 1.8
2018-Jun-18 04:30N 37°58' W 000°41'510.4
2018-Jun-18 04:00N 37°55' W 000°35'4 8.4
2018-Jun-18 03:30N 37°55' W 000°30'0 0.2
2018-Jun-18 02:57N 37°55' W 000°30'0 0.2
2018-Jun-18 02:30N 37°55' W 000°30'2 2.6
2018-Jun-18 01:55N 37°56' W 000°28'4 9.6
2018-Jun-18 01:30N 37°58' W 000°24'5 8.8
2018-Jun-18 00:57N 38°02' W 000°21'5 8.1
2018-Jun-18 00:22N 38°06' W 000°18'  
2018-Jun-15 03:52N 38°12' W 000°18'3 8.9
2018-Jun-15 03:30N 38°10' W 000°15'22 0.7
2018-Jun-13 19:20N 37°59' W 000°39'2 5.7
2018-Jun-13 19:00N 37°58' W 000°41'0 0.1
2018-Jun-13 18:30N 37°58' W 000°41'0 0.0
2018-Jun-13 18:01N 37°58' W 000°41'0 0.0
2018-Jun-13 17:28N 37°58' W 000°41'0 0.0
2018-Jun-13 17:00N 37°58' W 000°41'0 0.0
2018-Jun-13 16:30N 37°58' W 000°41'0 0.0
2018-Jun-13 16:00N 37°58' W 000°41'0 0.0
2018-Jun-13 15:30N 37°58' W 000°41'0 0.0
2018-Jun-13 15:00N 37°58' W 000°41'0 0.0
2018-Jun-13 14:30N 37°58' W 000°41'0 0.0
2018-Jun-13 14:00N 37°58' W 000°41'0 0.0
2018-Jun-13 13:29N 37°58' W 000°41'0 0.0
2018-Jun-13 12:58N 37°58' W 000°41'0 0.0
2018-Jun-13 12:30N 37°58' W 000°41'0 0.0
2018-Jun-13 12:01N 37°58' W 000°41'0 0.0
2018-Jun-13 11:30N 37°58' W 000°41'0 0.0
2018-Jun-13 10:58N 37°58' W 000°41'0 0.0
2018-Jun-13 10:30N 37°58' W 000°41'0 0.0
2018-Jun-13 10:01N 37°58' W 000°41'0 0.0
2018-Jun-13 09:30N 37°58' W 000°41'0 0.0
2018-Jun-13 09:00N 37°58' W 000°41'0 0.0
2018-Jun-13 08:28N 37°58' W 000°41'0 0.0
2018-Jun-13 08:01N 37°58' W 000°41'0 0.0
2018-Jun-13 07:30N 37°58' W 000°41'0 0.0
2018-Jun-13 07:00N 37°58' W 000°41'0 0.0
2018-Jun-13 06:31N 37°58' W 000°41'0 0.0
2018-Jun-13 06:00N 37°58' W 000°41'0 0.0
2018-Jun-13 05:31N 37°58' W 000°41'0 0.1
2018-Jun-13 05:00N 37°58' W 000°41'3 6.3
2018-Jun-13 04:30N 37°59' W 000°37'611.2
2018-Jun-13 03:59N 37°59' W 000°30'10 3.5
2018-Jun-13 01:05N 37°50' W 000°34'110.5
2018-Jun-13 01:00N 37°49' W 000°35'4 8.3
2018-Jun-13 00:30N 37°53' W 000°37'510.5
2018-Jun-13 00:00N 37°59' W 000°36'12 0.6
2018-Jun-12 02:24N 38°08' W 000°26'2 3.3
2018-Jun-12 01:55N 38°09' W 000°25'1 1.1
2018-Jun-12 01:09N 38°08' W 000°26'0 2.1
2018-Jun-12 00:57N 38°08' W 000°26'2 5.6
2018-Jun-12 00:31N 38°09' W 000°23'2 1.6
2018-Jun-11 23:16N 38°08' W 000°25'14 4.6
2018-Jun-11 20:10N 37°59' W 000°39'210.9
2018-Jun-11 19:59N 37°58' W 000°41'1 1.3
2018-Jun-11 19:30N 37°58' W 000°41'0 0.0
2018-Jun-11 19:00N 37°58' W 000°41'0 0.0
2018-Jun-11 18:31N 37°58' W 000°41'0 0.0
2018-Jun-11 18:00N 37°58' W 000°41'0 0.0
2018-Jun-11 17:31N 37°58' W 000°41'0 0.0
2018-Jun-11 17:01N 37°58' W 000°41'0 0.0
2018-Jun-11 16:31N 37°58' W 000°41'0 0.0
2018-Jun-11 16:00N 37°58' W 000°41'0 0.0
2018-Jun-11 15:31N 37°58' W 000°41'0 0.0
2018-Jun-11 15:00N 37°58' W 000°41'0 0.0
2018-Jun-11 14:30N 37°58' W 000°41'0 0.0
2018-Jun-11 14:01N 37°58' W 000°41'0 0.0
2018-Jun-11 13:26N 37°58' W 000°41'0 0.0
2018-Jun-11 13:00N 37°58' W 000°41'0 0.0
2018-Jun-11 12:31N 37°58' W 000°41'0 0.0
2018-Jun-11 12:00N 37°58' W 000°41'0 0.0
2018-Jun-11 11:30N 37°58' W 000°41'0 0.0
2018-Jun-11 11:01N 37°58' W 000°41'0 0.0
2018-Jun-11 10:30N 37°58' W 000°41'0 0.0
2018-Jun-11 10:01N 37°58' W 000°41'0 0.0
2018-Jun-11 09:30N 37°58' W 000°41'0 0.0
2018-Jun-11 09:01N 37°58' W 000°41'0 0.1
2018-Jun-11 08:30N 37°58' W 000°41'0 0.1
2018-Jun-11 08:01N 37°58' W 000°41'0 0.0
2018-Jun-11 07:31N 37°58' W 000°41'0 0.1
2018-Jun-11 07:00N 37°58' W 000°41'0 0.5
2018-Jun-11 06:31N 37°58' W 000°41'0 0.6
2018-Jun-11 06:00N 37°58' W 000°41'3 5.6
2018-Jun-11 05:31N 37°58' W 000°38'611.0
2018-Jun-11 05:00N 38°00' W 000°31'511.0
2018-Jun-11 04:30N 38°02' W 000°24'4 3.6
2018-Jun-11 03:26N 38°03' W 000°20'0 0.4
2018-Jun-11 03:00N 38°03' W 000°19'0 0.1
2018-Jun-11 02:28N 38°03' W 000°19'2 2.4
2018-Jun-11 01:43N 38°05' W 000°18'2 3.3
2018-Jun-11 01:14N 38°06' W 000°17'0 0.2
2018-Jun-11 00:43N 38°06' W 000°17'0 0.1
2018-Jun-11 00:26N 38°06' W 000°17'0 0.1
2018-Jun-11 00:00N 38°06' W 000°17'6 4.8
2018-Jun-10 22:39N 38°11' W 000°13'411.0
2018-Jun-10 22:18N 38°14' W 000°15'  
Track history (hours):
 
Tides and Currents Weather Stations Pressure Air Temp Water Temp Dewpoint Dewpoint Depression Visibility Wind Speed Wind Dir Waves Ship Positions

Nuevo Hermanos Rabal

Last reported at 2018-Jun-18 21:00 UTC. Time now 2018-Jun-18 21:13 UTC.
Position N 37°37' W 000°42'.

Length 22 m; draft 3 m.

Type: Fishing. MMSI: 224215230.

Date/timePositionNaut miles runAvg speedWind from/ knotsBaromVisibWave heightAir tempDewpointWater temp
2018-Jun-18 21:00N 37°37' W 000°42'510.1
2018-Jun-18 20:30N 37°41' W 000°40'510.5
2018-Jun-18 20:00N 37°47' W 000°40'510.4
2018-Jun-18 19:30N 37°52' W 000°40'510.4
2018-Jun-18 19:00N 37°57' W 000°41'1 2.8
2018-Jun-18 18:30N 37°58' W 000°41'0 0.0
2018-Jun-18 18:00N 37°58' W 000°41'0 0.0
2018-Jun-18 17:30N 37°58' W 000°41'0 0.0
2018-Jun-18 17:00N 37°58' W 000°41'0 0.0
2018-Jun-18 16:30N 37°58' W 000°41'0 0.0
2018-Jun-18 16:00N 37°58' W 000°41'0 0.0
2018-Jun-18 15:30N 37°58' W 000°41'0 0.0
2018-Jun-18 15:00N 37°58' W 000°41'0 0.0
2018-Jun-18 14:30N 37°58' W 000°41'0 0.0
2018-Jun-18 14:00N 37°58' W 000°41'0 0.0
2018-Jun-18 13:30N 37°58' W 000°41'0 0.0
2018-Jun-18 13:00N 37°58' W 000°41'0 0.0
2018-Jun-18 12:30N 37°58' W 000°41'0 0.0
2018-Jun-18 12:00N 37°58' W 000°41'0 0.0
2018-Jun-18 11:30N 37°58' W 000°41'0 0.0
2018-Jun-18 11:00N 37°58' W 000°41'0 0.0
2018-Jun-18 10:30N 37°58' W 000°41'0 0.0
2018-Jun-18 10:00N 37°58' W 000°41'0 0.0
2018-Jun-18 09:30N 37°58' W 000°41'0 0.0
2018-Jun-18 09:00N 37°58' W 000°41'0 0.0
2018-Jun-18 08:30N 37°58' W 000°41'0 0.0
2018-Jun-18 08:00N 37°58' W 000°41'0 0.0
2018-Jun-18 07:30N 37°58' W 000°41'0 0.0
2018-Jun-18 07:00N 37°58' W 000°41'0 0.0
2018-Jun-18 06:30N 37°58' W 000°41'0 0.2
2018-Jun-18 06:00N 37°58' W 000°41'0 0.0
2018-Jun-18 05:30N 37°58' W 000°41'0 0.1
2018-Jun-18 05:00N 37°58' W 000°41'1 1.8
2018-Jun-18 04:30N 37°58' W 000°41'510.4
2018-Jun-18 04:00N 37°55' W 000°35'4 8.4
2018-Jun-18 03:30N 37°55' W 000°30'0 0.2
2018-Jun-18 02:57N 37°55' W 000°30'0 0.2
2018-Jun-18 02:30N 37°55' W 000°30'2 2.6
2018-Jun-18 01:55N 37°56' W 000°28'4 9.6
2018-Jun-18 01:30N 37°58' W 000°24'5 8.8
2018-Jun-18 00:57N 38°02' W 000°21'5 8.1
2018-Jun-18 00:22N 38°06' W 000°18'  
2018-Jun-15 03:52N 38°12' W 000°18'3 8.9
2018-Jun-15 03:30N 38°10' W 000°15'22 0.7
2018-Jun-13 19:20N 37°59' W 000°39'2 5.7
2018-Jun-13 19:00N 37°58' W 000°41'0 0.1
2018-Jun-13 18:30N 37°58' W 000°41'0 0.0
2018-Jun-13 18:01N 37°58' W 000°41'0 0.0
2018-Jun-13 17:28N 37°58' W 000°41'0 0.0
2018-Jun-13 17:00N 37°58' W 000°41'0 0.0
2018-Jun-13 16:30N 37°58' W 000°41'0 0.0
2018-Jun-13 16:00N 37°58' W 000°41'0 0.0
2018-Jun-13 15:30N 37°58' W 000°41'0 0.0
2018-Jun-13 15:00N 37°58' W 000°41'0 0.0
2018-Jun-13 14:30N 37°58' W 000°41'0 0.0
2018-Jun-13 14:00N 37°58' W 000°41'0 0.0
2018-Jun-13 13:29N 37°58' W 000°41'0 0.0
2018-Jun-13 12:58N 37°58' W 000°41'0 0.0
2018-Jun-13 12:30N 37°58' W 000°41'0 0.0
2018-Jun-13 12:01N 37°58' W 000°41'0 0.0
2018-Jun-13 11:30N 37°58' W 000°41'0 0.0
2018-Jun-13 10:58N 37°58' W 000°41'0 0.0
2018-Jun-13 10:30N 37°58' W 000°41'0 0.0
2018-Jun-13 10:01N 37°58' W 000°41'0 0.0
2018-Jun-13 09:30N 37°58' W 000°41'0 0.0
2018-Jun-13 09:00N 37°58' W 000°41'0 0.0
2018-Jun-13 08:28N 37°58' W 000°41'0 0.0
2018-Jun-13 08:01N 37°58' W 000°41'0 0.0
2018-Jun-13 07:30N 37°58' W 000°41'0 0.0
2018-Jun-13 07:00N 37°58' W 000°41'0 0.0
2018-Jun-13 06:31N 37°58' W 000°41'0 0.0
2018-Jun-13 06:00N 37°58' W 000°41'0 0.0
2018-Jun-13 05:31N 37°58' W 000°41'0 0.1
2018-Jun-13 05:00N 37°58' W 000°41'3 6.3
2018-Jun-13 04:30N 37°59' W 000°37'611.2
2018-Jun-13 03:59N 37°59' W 000°30'10 3.5
2018-Jun-13 01:05N 37°50' W 000°34'110.5
2018-Jun-13 01:00N 37°49' W 000°35'4 8.3
2018-Jun-13 00:30N 37°53' W 000°37'510.5
2018-Jun-13 00:00N 37°59' W 000°36'12 0.6
2018-Jun-12 02:24N 38°08' W 000°26'2 3.3
2018-Jun-12 01:55N 38°09' W 000°25'1 1.1
2018-Jun-12 01:09N 38°08' W 000°26'0 2.1
2018-Jun-12 00:57N 38°08' W 000°26'2 5.6
2018-Jun-12 00:31N 38°09' W 000°23'2 1.6
2018-Jun-11 23:16N 38°08' W 000°25'14 4.6
2018-Jun-11 20:10N 37°59' W 000°39'210.9
2018-Jun-11 19:59N 37°58' W 000°41'1 1.3
2018-Jun-11 19:30N 37°58' W 000°41'0 0.0
2018-Jun-11 19:00N 37°58' W 000°41'0 0.0
2018-Jun-11 18:31N 37°58' W 000°41'0 0.0
2018-Jun-11 18:00N 37°58' W 000°41'0 0.0
2018-Jun-11 17:31N 37°58' W 000°41'0 0.0
2018-Jun-11 17:01N 37°58' W 000°41'0 0.0
2018-Jun-11 16:31N 37°58' W 000°41'0 0.0
2018-Jun-11 16:00N 37°58' W 000°41'0 0.0
2018-Jun-11 15:31N 37°58' W 000°41'0 0.0
2018-Jun-11 15:00N 37°58' W 000°41'0 0.0
2018-Jun-11 14:30N 37°58' W 000°41'0 0.0
2018-Jun-11 14:01N 37°58' W 000°41'0 0.0
2018-Jun-11 13:26N 37°58' W 000°41'0 0.0
2018-Jun-11 13:00N 37°58' W 000°41'0 0.0
2018-Jun-11 12:31N 37°58' W 000°41'0 0.0
2018-Jun-11 12:00N 37°58' W 000°41'0 0.0
2018-Jun-11 11:30N 37°58' W 000°41'0 0.0
2018-Jun-11 11:01N 37°58' W 000°41'0 0.0
2018-Jun-11 10:30N 37°58' W 000°41'0 0.0
2018-Jun-11 10:01N 37°58' W 000°41'0 0.0
2018-Jun-11 09:30N 37°58' W 000°41'0 0.0
2018-Jun-11 09:01N 37°58' W 000°41'0 0.1
2018-Jun-11 08:30N 37°58' W 000°41'0 0.1
2018-Jun-11 08:01N 37°58' W 000°41'0 0.0
2018-Jun-11 07:31N 37°58' W 000°41'0 0.1
2018-Jun-11 07:00N 37°58' W 000°41'0 0.5
2018-Jun-11 06:31N 37°58' W 000°41'0 0.6
2018-Jun-11 06:00N 37°58' W 000°41'3 5.6
2018-Jun-11 05:31N 37°58' W 000°38'611.0
2018-Jun-11 05:00N 38°00' W 000°31'511.0
2018-Jun-11 04:30N 38°02' W 000°24'4 3.6
2018-Jun-11 03:26N 38°03' W 000°20'0 0.4
2018-Jun-11 03:00N 38°03' W 000°19'0 0.1
2018-Jun-11 02:28N 38°03' W 000°19'2 2.4
2018-Jun-11 01:43N 38°05' W 000°18'2 3.3
2018-Jun-11 01:14N 38°06' W 000°17'0 0.2
2018-Jun-11 00:43N 38°06' W 000°17'0 0.1
2018-Jun-11 00:26N 38°06' W 000°17'0 0.1
2018-Jun-11 00:00N 38°06' W 000°17'6 4.8
2018-Jun-10 22:39N 38°11' W 000°13'411.0
2018-Jun-10 22:18N 38°14' W 000°15'  

Dump ship's entire track history